Zihuatanejo, Mexico

10:34 PM CST on February 10, 2016 (GMT -0600)
Ixtapa-Zihuatanejo International | | Change Station
CLOSE
Current Station
Airport
Location: Ixtapa Zihuatanejo,
Elevation: 20 ft
Nearby Weather Stations

Elev 20 ft 17.60 °N, 101.46 °W | Updated 1 hour ago

Mostly Cloudy
Mostly Cloudy
79 °F
Feels Like 79 °F
N
0
Wind Variable Wind from North

Today
High -- | Low -- °F
--% Chance of Precip.
Yesterday
High -- | Low -- °F
Precip. -- in
Pressure 29.96 in
Visibility 6.0 miles
Clouds Scattered Clouds 10000 ft
Mostly Cloudy 25000 ft
Dew Point 73 °F
Humidity 83%
Rainfall 0.00 in
Snow Depth Not available.
7:15 AM 6:45 PM
Waxing Crescent, 9% visible
METAR MMZH 110245Z 00000KT 6SM SCT100 BKN250 26/23 A2996 RMK SLP143 52010 954 8/032 HZY
Pressure 29.96 in
Visibility 6.0 miles
Clouds Scattered Clouds 10000 ft
Mostly Cloudy 25000 ft
Dew Point 73 °F
Humidity 83%
Rainfall 0.00 in
Snow Depth Not available.
7:15 AM 6:45 PM
Waxing Crescent, 9% visible
METAR MMZH 110245Z 00000KT 6SM SCT100 BKN250 26/23 A2996 RMK SLP143 52010 954 8/032 HZY

10-Day Weather Forecast

No radar image for this location.
×

Almanac

Astronomy

Feb. 10, 2016 Rise Set
Actual Time
Civil Twilight
Nautical Twilight
Astronomical Twilight
Moon
Length of Visible Light
Length of Day
Tomorrow will be .
, % of the Moon is Illuminated

Today's Extremes

Country Highs Country Lows

Community

WunderPhotos

Upload Photos

1,892,014 photos uploaded!

WunderBlog® & News

Nearby

Air Quality

  Air Quality AQ Index Pollutant
Not available.

Snow Depth

Station Depth Elevation

Earthquake Activity

City Distance Mag. Time & Date
Minimum magnitude displayed is 2.5.

Coastal Water Temperatures

Place Temperature

Stations

Nearby Weather Stations

Station Location Temp. Windchill Dew Point Humidity Wind Precip. Elev Updated Type